Unser neues Flugzeug

Liebe Piloten, Flugschüler und Charterer,

Wir freuen uns Euch unser neues Flugzeug präsentieren zu können.

Voraussichtlich schon Mitte März haben wir unsere Mooney Ovation 2 GX bei uns in Augsburg und für Euch zur Schulung und zum Charten zur Verfügung.

Die Mooney ist Baujahr 2006, hat u.a. eine Lederausstattung, Speed Breaks, TKS Enteisungsanlage und eine Sauerstoffanlage.

Selbstverständlich ist Sie genau wie unsere Cessna 172 SP D-ETTU mit Garmin G 1000 IFR ausgestattet.

Happy landings

Christian

 

 

Flugwetter Augsburg

[source: ADDS]
METAR
EDMA 151050Z 26007KT 9999 -RA FEW021 BKN066 17/12 Q1015 =
TAF EDMA 150800Z 1509/1518 28005KT CAVOK TEMPO 1509/1518 SHRA BKN025CB PROB30 TEMPO 1512/1518 4500 TSRA BKN012CB
TAF
TAF EDMA 150800Z 1509/1518 28005KT CAVOK TEMPO 1509/1518 SHRA BKN025CB PROB30 TEMPO 1512/1518 4500 TSRA BKN012CB =
Cookies erleichtern die Bereitstellung unserer Dienste. Mit der Nutzung unserer Dienste erklären Sie sich damit einverstanden, dass wir Cookies verwenden.
Weitere Informationen Ok